sensor_id;sensor_type;location;lat;lon;timestamp;temperature;humidity
3198;DHT22;1611;49.394;11.136;2023-04-22T00:00:44;11.60;53.20
3198;DHT22;1611;49.394;11.136;2023-04-22T00:03:10;11.50;54.00
3198;DHT22;1611;49.394;11.136;2023-04-22T00:05:38;11.50;53.30
3198;DHT22;1611;49.394;11.136;2023-04-22T00:08:07;11.50;53.10
3198;DHT22;1611;49.394;11.136;2023-04-22T00:10:34;11.50;52.90
3198;DHT22;1611;49.394;11.136;2023-04-22T00:13:01;11.40;53.10
3198;DHT22;1611;49.394;11.136;2023-04-22T00:15:27;11.40;53.20
3198;DHT22;1611;49.394;11.136;2023-04-22T00:17:54;11.40;53.30
3198;DHT22;1611;49.394;11.136;2023-04-22T00:20:21;11.30;53.50
3198;DHT22;1611;49.394;11.136;2023-04-22T00:22:48;11.20;53.50
3198;DHT22;1611;49.394;11.136;2023-04-22T00:25:16;11.20;53.70
3198;DHT22;1611;49.394;11.136;2023-04-22T00:27:43;11.20;53.80
3198;DHT22;1611;49.394;11.136;2023-04-22T00:30:10;11.20;53.90
3198;DHT22;1611;49.394;11.136;2023-04-22T00:32:37;11.20;54.10
3198;DHT22;1611;49.394;11.136;2023-04-22T00:35:05;11.20;53.80
3198;DHT22;1611;49.394;11.136;2023-04-22T00:37:32;11.20;53.80
3198;DHT22;1611;49.394;11.136;2023-04-22T00:39:59;11.10;54.00
3198;DHT22;1611;49.394;11.136;2023-04-22T00:42:27;11.10;53.90
3198;DHT22;1611;49.394;11.136;2023-04-22T00:44:54;11.10;54.00
3198;DHT22;1611;49.394;11.136;2023-04-22T00:47:22;11.00;53.90
3198;DHT22;1611;49.394;11.136;2023-04-22T00:49:51;11.00;53.80
3198;DHT22;1611;49.394;11.136;2023-04-22T00:52:18;11.00;54.00
3198;DHT22;1611;49.394;11.136;2023-04-22T00:54:45;10.90;54.10
3198;DHT22;1611;49.394;11.136;2023-04-22T00:57:14;10.90;54.20
3198;DHT22;1611;49.394;11.136;2023-04-22T00:59:43;10.90;54.40
3198;DHT22;1611;49.394;11.136;2023-04-22T01:02:10;10.90;54.30
3198;DHT22;1611;49.394;11.136;2023-04-22T01:04:37;10.90;54.40
3198;DHT22;1611;49.394;11.136;2023-04-22T01:07:04;10.90;54.40
3198;DHT22;1611;49.394;11.136;2023-04-22T01:09:31;10.90;54.50
3198;DHT22;1611;49.394;11.136;2023-04-22T01:11:58;10.90;53.90
3198;DHT22;1611;49.394;11.136;2023-04-22T01:14:26;11.00;53.70
3198;DHT22;1611;49.394;11.136;2023-04-22T01:16:55;11.00;54.30
3198;DHT22;1611;49.394;11.136;2023-04-22T01:19:22;11.00;54.20
3198;DHT22;1611;49.394;11.136;2023-04-22T01:21:50;11.10;53.70
3198;DHT22;1611;49.394;11.136;2023-04-22T01:24:18;11.10;53.30
3198;DHT22;1611;49.394;11.136;2023-04-22T01:26:46;11.10;53.20
3198;DHT22;1611;49.394;11.136;2023-04-22T01:29:13;11.10;53.60
3198;DHT22;1611;49.394;11.136;2023-04-22T01:31:40;11.20;53.80
3198;DHT22;1611;49.394;11.136;2023-04-22T01:34:07;11.20;53.50
3198;DHT22;1611;49.394;11.136;2023-04-22T01:36:34;11.20;53.70
3198;DHT22;1611;49.394;11.136;2023-04-22T01:39:01;11.20;53.60
3198;DHT22;1611;49.394;11.136;2023-04-22T01:41:29;11.20;53.30
3198;DHT22;1611;49.394;11.136;2023-04-22T01:43:57;11.20;52.90
3198;DHT22;1611;49.394;11.136;2023-04-22T01:46:24;11.20;52.70
3198;DHT22;1611;49.394;11.136;2023-04-22T01:48:50;11.20;52.30
3198;DHT22;1611;49.394;11.136;2023-04-22T01:51:18;11.10;52.30
3198;DHT22;1611;49.394;11.136;2023-04-22T01:53:46;11.10;52.40
3198;DHT22;1611;49.394;11.136;2023-04-22T01:56:13;11.00;52.80
3198;DHT22;1611;49.394;11.136;2023-04-22T01:58:42;11.00;53.00
3198;DHT22;1611;49.394;11.136;2023-04-22T02:01:09;10.90;52.50
3198;DHT22;1611;49.394;11.136;2023-04-22T02:03:37;10.90;52.90
3198;DHT22;1611;49.394;11.136;2023-04-22T02:06:04;10.80;52.80
3198;DHT22;1611;49.394;11.136;2023-04-22T02:08:31;10.70;53.60
3198;DHT22;1611;49.394;11.136;2023-04-22T02:10:57;10.70;54.00
3198;DHT22;1611;49.394;11.136;2023-04-22T02:13:25;10.60;54.40
3198;DHT22;1611;49.394;11.136;2023-04-22T02:15:53;10.70;54.50
3198;DHT22;1611;49.394;11.136;2023-04-22T02:18:20;10.70;54.40
3198;DHT22;1611;49.394;11.136;2023-04-22T02:20:47;10.70;54.40
3198;DHT22;1611;49.394;11.136;2023-04-22T02:23:14;10.60;54.10
3198;DHT22;1611;49.394;11.136;2023-04-22T02:25:47;10.70;54.20
3198;DHT22;1611;49.394;11.136;2023-04-22T02:28:14;10.70;54.40
3198;DHT22;1611;49.394;11.136;2023-04-22T02:30:40;10.60;54.40
3198;DHT22;1611;49.394;11.136;2023-04-22T02:33:08;10.50;54.60
3198;DHT22;1611;49.394;11.136;2023-04-22T02:35:35;10.60;54.90
3198;DHT22;1611;49.394;11.136;2023-04-22T02:38:02;10.50;55.00
3198;DHT22;1611;49.394;11.136;2023-04-22T02:40:29;10.60;55.10
3198;DHT22;1611;49.394;11.136;2023-04-22T02:42:55;10.60;55.10
3198;DHT22;1611;49.394;11.136;2023-04-22T02:45:22;10.60;54.60
3198;DHT22;1611;49.394;11.136;2023-04-22T02:47:49;10.60;55.10
3198;DHT22;1611;49.394;11.136;2023-04-22T02:50:17;10.60;55.10
3198;DHT22;1611;49.394;11.136;2023-04-22T02:52:44;10.60;55.30
3198;DHT22;1611;49.394;11.136;2023-04-22T02:55:10;10.50;55.50
3198;DHT22;1611;49.394;11.136;2023-04-22T02:57:37;10.50;55.00
3198;DHT22;1611;49.394;11.136;2023-04-22T03:00:05;10.40;54.80
3198;DHT22;1611;49.394;11.136;2023-04-22T03:02:33;10.40;55.00
3198;DHT22;1611;49.394;11.136;2023-04-22T03:05:00;10.30;55.30
3198;DHT22;1611;49.394;11.136;2023-04-22T03:07:28;10.30;55.60
3198;DHT22;1611;49.394;11.136;2023-04-22T03:09:55;10.20;55.80
3198;DHT22;1611;49.394;11.136;2023-04-22T03:12:21;10.20;55.90
3198;DHT22;1611;49.394;11.136;2023-04-22T03:14:48;10.20;56.00
3198;DHT22;1611;49.394;11.136;2023-04-22T03:17:15;10.30;55.90
3198;DHT22;1611;49.394;11.136;2023-04-22T03:19:42;10.20;55.80
3198;DHT22;1611;49.394;11.136;2023-04-22T03:22:08;10.20;55.80
3198;DHT22;1611;49.394;11.136;2023-04-22T03:24:37;10.10;55.70
3198;DHT22;1611;49.394;11.136;2023-04-22T03:27:04;10.10;55.60
3198;DHT22;1611;49.394;11.136;2023-04-22T03:29:31;10.10;55.60
3198;DHT22;1611;49.394;11.136;2023-04-22T03:31:57;10.10;55.50
3198;DHT22;1611;49.394;11.136;2023-04-22T03:34:24;10.00;55.50
3198;DHT22;1611;49.394;11.136;2023-04-22T03:36:51;10.00;55.50
3198;DHT22;1611;49.394;11.136;2023-04-22T03:39:18;9.90;55.70
3198;DHT22;1611;49.394;11.136;2023-04-22T03:41:46;9.80;55.50
3198;DHT22;1611;49.394;11.136;2023-04-22T03:44:13;9.80;55.50
3198;DHT22;1611;49.394;11.136;2023-04-22T03:46:39;9.80;55.60
3198;DHT22;1611;49.394;11.136;2023-04-22T03:49:06;9.70;55.70
3198;DHT22;1611;49.394;11.136;2023-04-22T03:51:33;9.70;55.90
3198;DHT22;1611;49.394;11.136;2023-04-22T03:54:00;9.70;56.00
3198;DHT22;1611;49.394;11.136;2023-04-22T03:56:26;9.60;56.20
3198;DHT22;1611;49.394;11.136;2023-04-22T03:58:54;9.50;56.50
3198;DHT22;1611;49.394;11.136;2023-04-22T04:01:21;9.50;56.60
3198;DHT22;1611;49.394;11.136;2023-04-22T04:03:48;9.50;56.70
3198;DHT22;1611;49.394;11.136;2023-04-22T04:06:15;9.50;56.30
3198;DHT22;1611;49.394;11.136;2023-04-22T04:08:42;9.50;56.00
3198;DHT22;1611;49.394;11.136;2023-04-22T04:11:09;9.40;56.00
3198;DHT22;1611;49.394;11.136;2023-04-22T04:13:36;9.30;56.40
3198;DHT22;1611;49.394;11.136;2023-04-22T04:16:04;9.30;56.60
3198;DHT22;1611;49.394;11.136;2023-04-22T04:18:31;9.30;56.70
3198;DHT22;1611;49.394;11.136;2023-04-22T04:20:58;9.20;56.70
3198;DHT22;1611;49.394;11.136;2023-04-22T04:23:25;9.20;56.80
3198;DHT22;1611;49.394;11.136;2023-04-22T04:25:52;9.20;56.80
3198;DHT22;1611;49.394;11.136;2023-04-22T04:28:20;9.20;56.80
3198;DHT22;1611;49.394;11.136;2023-04-22T04:30:47;9.20;56.70
3198;DHT22;1611;49.394;11.136;2023-04-22T04:33:15;9.20;56.70
3198;DHT22;1611;49.394;11.136;2023-04-22T04:35:42;9.20;56.90
3198;DHT22;1611;49.394;11.136;2023-04-22T04:38:09;9.30;56.90
3198;DHT22;1611;49.394;11.136;2023-04-22T04:40:37;9.30;56.80
3198;DHT22;1611;49.394;11.136;2023-04-22T04:43:03;9.20;56.30
3198;DHT22;1611;49.394;11.136;2023-04-22T04:45:33;9.30;56.40
3198;DHT22;1611;49.394;11.136;2023-04-22T04:48:04;9.30;56.30
3198;DHT22;1611;49.394;11.136;2023-04-22T04:50:33;9.30;56.30
3198;DHT22;1611;49.394;11.136;2023-04-22T04:53:00;9.40;56.10
3198;DHT22;1611;49.394;11.136;2023-04-22T04:55:27;9.40;55.90
3198;DHT22;1611;49.394;11.136;2023-04-22T04:57:54;9.40;56.20
3198;DHT22;1611;49.394;11.136;2023-04-22T05:00:20;9.30;55.90
3198;DHT22;1611;49.394;11.136;2023-04-22T05:02:47;9.40;56.10
3198;DHT22;1611;49.394;11.136;2023-04-22T05:05:14;9.40;56.10
3198;DHT22;1611;49.394;11.136;2023-04-22T05:07:42;9.50;56.10
3198;DHT22;1611;49.394;11.136;2023-04-22T05:10:09;9.50;55.80
3198;DHT22;1611;49.394;11.136;2023-04-22T05:12:36;9.50;56.50
3198;DHT22;1611;49.394;11.136;2023-04-22T05:15:04;9.60;55.80
3198;DHT22;1611;49.394;11.136;2023-04-22T05:17:31;9.60;56.10
3198;DHT22;1611;49.394;11.136;2023-04-22T05:19:58;9.70;56.00
3198;DHT22;1611;49.394;11.136;2023-04-22T05:22:24;9.70;55.50
3198;DHT22;1611;49.394;11.136;2023-04-22T05:24:52;9.70;55.50
3198;DHT22;1611;49.394;11.136;2023-04-22T05:27:19;9.80;55.40
3198;DHT22;1611;49.394;11.136;2023-04-22T05:29:46;9.90;55.60
3198;DHT22;1611;49.394;11.136;2023-04-22T05:32:13;9.90;55.30
3198;DHT22;1611;49.394;11.136;2023-04-22T05:34:40;10.00;54.70
3198;DHT22;1611;49.394;11.136;2023-04-22T05:37:06;10.10;54.90
3198;DHT22;1611;49.394;11.136;2023-04-22T05:39:35;10.20;54.90
3198;DHT22;1611;49.394;11.136;2023-04-22T05:42:03;10.30;54.90
3198;DHT22;1611;49.394;11.136;2023-04-22T05:44:30;10.40;54.70
3198;DHT22;1611;49.394;11.136;2023-04-22T05:46:57;10.50;54.50
3198;DHT22;1611;49.394;11.136;2023-04-22T05:49:23;10.60;54.00
3198;DHT22;1611;49.394;11.136;2023-04-22T05:51:50;10.80;53.40
3198;DHT22;1611;49.394;11.136;2023-04-22T05:54:17;10.80;53.10
3198;DHT22;1611;49.394;11.136;2023-04-22T05:56:44;10.90;52.70
3198;DHT22;1611;49.394;11.136;2023-04-22T05:59:12;11.00;52.20
3198;DHT22;1611;49.394;11.136;2023-04-22T06:01:39;11.10;52.40
3198;DHT22;1611;49.394;11.136;2023-04-22T06:04:05;11.20;50.80
3198;DHT22;1611;49.394;11.136;2023-04-22T06:06:34;11.40;50.80
3198;DHT22;1611;49.394;11.136;2023-04-22T06:09:01;11.50;50.60
3198;DHT22;1611;49.394;11.136;2023-04-22T06:11:28;11.70;49.40
3198;DHT22;1611;49.394;11.136;2023-04-22T06:13:54;11.80;46.40
3198;DHT22;1611;49.394;11.136;2023-04-22T06:16:22;12.00;47.30
3198;DHT22;1611;49.394;11.136;2023-04-22T06:18:49;12.20;47.00
3198;DHT22;1611;49.394;11.136;2023-04-22T06:21:16;12.40;45.80
3198;DHT22;1611;49.394;11.136;2023-04-22T06:23:43;12.60;44.20
3198;DHT22;1611;49.394;11.136;2023-04-22T06:26:10;12.90;42.20
3198;DHT22;1611;49.394;11.136;2023-04-22T06:28:37;13.10;42.50
3198;DHT22;1611;49.394;11.136;2023-04-22T06:31:04;13.30;41.10
3198;DHT22;1611;49.394;11.136;2023-04-22T06:33:32;13.40;39.60
3198;DHT22;1611;49.394;11.136;2023-04-22T06:35:59;13.50;37.60
3198;DHT22;1611;49.394;11.136;2023-04-22T06:38:25;13.80;37.70
3198;DHT22;1611;49.394;11.136;2023-04-22T06:40:52;13.90;37.20
3198;DHT22;1611;49.394;11.136;2023-04-22T06:43:19;14.10;37.60
3198;DHT22;1611;49.394;11.136;2023-04-22T06:45:46;14.20;36.10
3198;DHT22;1611;49.394;11.136;2023-04-22T06:48:12;14.40;35.80
3198;DHT22;1611;49.394;11.136;2023-04-22T06:50:40;14.60;35.40
3198;DHT22;1611;49.394;11.136;2023-04-22T06:53:07;14.70;34.30
3198;DHT22;1611;49.394;11.136;2023-04-22T06:55:34;14.90;34.40
3198;DHT22;1611;49.394;11.136;2023-04-22T06:58:01;15.00;34.50
3198;DHT22;1611;49.394;11.136;2023-04-22T07:00:28;15.10;33.50
3198;DHT22;1611;49.394;11.136;2023-04-22T07:02:55;15.30;32.80
3198;DHT22;1611;49.394;11.136;2023-04-22T07:05:21;15.50;32.20
3198;DHT22;1611;49.394;11.136;2023-04-22T07:07:50;15.70;32.10
3198;DHT22;1611;49.394;11.136;2023-04-22T07:10:16;15.80;31.30
3198;DHT22;1611;49.394;11.136;2023-04-22T07:12:43;15.90;31.40
3198;DHT22;1611;49.394;11.136;2023-04-22T07:15:10;16.10;30.90
3198;DHT22;1611;49.394;11.136;2023-04-22T07:17:37;16.20;30.90
3198;DHT22;1611;49.394;11.136;2023-04-22T07:20:05;16.20;30.70
3198;DHT22;1611;49.394;11.136;2023-04-22T07:22:32;16.40;30.70
3198;DHT22;1611;49.394;11.136;2023-04-22T07:25:00;16.60;30.20
3198;DHT22;1611;49.394;11.136;2023-04-22T07:27:27;16.70;29.60
3198;DHT22;1611;49.394;11.136;2023-04-22T07:29:53;16.80;29.50
3198;DHT22;1611;49.394;11.136;2023-04-22T07:32:20;16.80;30.30
3198;DHT22;1611;49.394;11.136;2023-04-22T07:34:47;16.80;29.30
3198;DHT22;1611;49.394;11.136;2023-04-22T07:37:14;16.70;29.30
3198;DHT22;1611;49.394;11.136;2023-04-22T07:39:40;16.60;28.90
3198;DHT22;1611;49.394;11.136;2023-04-22T07:42:08;16.60;29.80
3198;DHT22;1611;49.394;11.136;2023-04-22T07:44:36;16.70;30.00
3198;DHT22;1611;49.394;11.136;2023-04-22T07:47:03;16.70;30.70
3198;DHT22;1611;49.394;11.136;2023-04-22T07:49:29;16.80;29.20
3198;DHT22;1611;49.394;11.136;2023-04-22T07:51:56;16.80;29.60
3198;DHT22;1611;49.394;11.136;2023-04-22T07:54:23;16.80;28.70
3198;DHT22;1611;49.394;11.136;2023-04-22T07:56:50;16.90;29.10
3198;DHT22;1611;49.394;11.136;2023-04-22T07:59:18;16.90;28.80
3198;DHT22;1611;49.394;11.136;2023-04-22T08:01:45;17.00;28.90
3198;DHT22;1611;49.394;11.136;2023-04-22T08:04:11;17.10;29.40
3198;DHT22;1611;49.394;11.136;2023-04-22T08:06:38;17.20;28.80
3198;DHT22;1611;49.394;11.136;2023-04-22T08:09:05;17.30;28.30
3198;DHT22;1611;49.394;11.136;2023-04-22T08:11:32;17.40;28.30
3198;DHT22;1611;49.394;11.136;2023-04-22T08:13:58;17.60;28.60
3198;DHT22;1611;49.394;11.136;2023-04-22T08:16:26;17.70;28.80
3198;DHT22;1611;49.394;11.136;2023-04-22T08:18:53;17.90;29.20
3198;DHT22;1611;49.394;11.136;2023-04-22T08:21:21;18.00;28.50
3198;DHT22;1611;49.394;11.136;2023-04-22T08:23:48;18.10;27.80
3198;DHT22;1611;49.394;11.136;2023-04-22T08:26:16;18.20;27.30
3198;DHT22;1611;49.394;11.136;2023-04-22T08:28:43;18.20;26.90
3198;DHT22;1611;49.394;11.136;2023-04-22T08:31:10;18.40;28.30
3198;DHT22;1611;49.394;11.136;2023-04-22T08:33:39;18.50;27.20
3198;DHT22;1611;49.394;11.136;2023-04-22T08:36:07;18.60;26.70
3198;DHT22;1611;49.394;11.136;2023-04-22T08:38:34;18.70;26.80
3198;DHT22;1611;49.394;11.136;2023-04-22T08:41:01;18.90;26.00
3198;DHT22;1611;49.394;11.136;2023-04-22T08:43:31;18.90;25.10
3198;DHT22;1611;49.394;11.136;2023-04-22T08:45:58;18.90;24.10
3198;DHT22;1611;49.394;11.136;2023-04-22T08:48:25;18.90;25.20
3198;DHT22;1611;49.394;11.136;2023-04-22T08:50:53;19.00;24.60
3198;DHT22;1611;49.394;11.136;2023-04-22T08:53:20;19.20;23.70
3198;DHT22;1611;49.394;11.136;2023-04-22T08:55:48;19.20;24.90
3198;DHT22;1611;49.394;11.136;2023-04-22T08:58:15;19.20;23.20
3198;DHT22;1611;49.394;11.136;2023-04-22T09:00:42;19.40;23.50
3198;DHT22;1611;49.394;11.136;2023-04-22T09:03:10;19.60;23.40
3198;DHT22;1611;49.394;11.136;2023-04-22T09:05:39;19.80;22.90
3198;DHT22;1611;49.394;11.136;2023-04-22T09:08:09;19.90;22.50
3198;DHT22;1611;49.394;11.136;2023-04-22T09:10:36;20.20;21.80
3198;DHT22;1611;49.394;11.136;2023-04-22T09:13:04;20.50;23.20
3198;DHT22;1611;49.394;11.136;2023-04-22T09:15:31;20.70;22.20
3198;DHT22;1611;49.394;11.136;2023-04-22T09:17:58;20.90;21.00
3198;DHT22;1611;49.394;11.136;2023-04-22T09:20:26;21.10;20.40
3198;DHT22;1611;49.394;11.136;2023-04-22T09:22:53;21.10;20.30
3198;DHT22;1611;49.394;11.136;2023-04-22T09:25:23;21.00;19.30
3198;DHT22;1611;49.394;11.136;2023-04-22T09:27:50;20.90;19.10
3198;DHT22;1611;49.394;11.136;2023-04-22T09:30:18;20.70;19.30
3198;DHT22;1611;49.394;11.136;2023-04-22T09:32:52;20.50;19.60
3198;DHT22;1611;49.394;11.136;2023-04-22T09:35:25;20.40;21.30
3198;DHT22;1611;49.394;11.136;2023-04-22T09:37:52;20.40;20.20
3198;DHT22;1611;49.394;11.136;2023-04-22T09:40:19;20.40;20.20
3198;DHT22;1611;49.394;11.136;2023-04-22T09:42:51;20.50;19.40
3198;DHT22;1611;49.394;11.136;2023-04-22T09:45:25;20.50;21.00
3198;DHT22;1611;49.394;11.136;2023-04-22T09:47:54;20.80;19.70
3198;DHT22;1611;49.394;11.136;2023-04-22T09:50:23;20.80;19.90
3198;DHT22;1611;49.394;11.136;2023-04-22T09:52:55;20.80;20.30
3198;DHT22;1611;49.394;11.136;2023-04-22T09:55:23;20.90;19.20
3198;DHT22;1611;49.394;11.136;2023-04-22T09:57:52;21.00;20.00
3198;DHT22;1611;49.394;11.136;2023-04-22T10:00:20;21.20;19.30
3198;DHT22;1611;49.394;11.136;2023-04-22T10:02:47;21.20;18.70
3198;DHT22;1611;49.394;11.136;2023-04-22T10:05:14;21.30;19.30
3198;DHT22;1611;49.394;11.136;2023-04-22T10:07:43;21.50;18.50
3198;DHT22;1611;49.394;11.136;2023-04-22T10:10:10;21.70;18.40
3198;DHT22;1611;49.394;11.136;2023-04-22T10:12:37;21.80;18.90
3198;DHT22;1611;49.394;11.136;2023-04-22T10:15:06;21.90;17.70
3198;DHT22;1611;49.394;11.136;2023-04-22T10:17:36;22.00;17.20
3198;DHT22;1611;49.394;11.136;2023-04-22T10:20:06;22.40;18.80
3198;DHT22;1611;49.394;11.136;2023-04-22T10:22:39;22.40;18.10
3198;DHT22;1611;49.394;11.136;2023-04-22T10:25:11;22.70;16.40
3198;DHT22;1611;49.394;11.136;2023-04-22T10:27:38;22.90;15.80
3198;DHT22;1611;49.394;11.136;2023-04-22T10:30:08;22.90;16.30
3198;DHT22;1611;49.394;11.136;2023-04-22T10:32:36;23.10;15.30
3198;DHT22;1611;49.394;11.136;2023-04-22T10:35:10;23.20;16.10
3198;DHT22;1611;49.394;11.136;2023-04-22T10:37:41;23.30;15.70
3198;DHT22;1611;49.394;11.136;2023-04-22T10:40:11;23.60;15.60
3198;DHT22;1611;49.394;11.136;2023-04-22T10:42:42;23.80;15.60
3198;DHT22;1611;49.394;11.136;2023-04-22T10:45:14;23.60;15.30
3198;DHT22;1611;49.394;11.136;2023-04-22T10:47:41;23.70;15.60
3198;DHT22;1611;49.394;11.136;2023-04-22T10:50:20;23.60;15.50
3198;DHT22;1611;49.394;11.136;2023-04-22T10:52:49;23.60;15.40
3198;DHT22;1611;49.394;11.136;2023-04-22T10:55:16;23.70;14.80
3198;DHT22;1611;49.394;11.136;2023-04-22T10:57:45;23.60;14.90
3198;DHT22;1611;49.394;11.136;2023-04-22T11:03:15;23.60;14.50
3198;DHT22;1611;49.394;11.136;2023-04-22T11:05:42;23.50;15.60
3198;DHT22;1611;49.394;11.136;2023-04-22T11:08:18;23.60;15.40
3198;DHT22;1611;49.394;11.136;2023-04-22T11:10:48;23.70;14.30
3198;DHT22;1611;49.394;11.136;2023-04-22T11:13:16;24.00;15.70
3198;DHT22;1611;49.394;11.136;2023-04-22T11:15:48;24.20;14.00
3198;DHT22;1611;49.394;11.136;2023-04-22T11:18:20;24.40;13.70
3198;DHT22;1611;49.394;11.136;2023-04-22T11:20:49;24.30;13.10
3198;DHT22;1611;49.394;11.136;2023-04-22T11:23:21;24.40;13.10
3198;DHT22;1611;49.394;11.136;2023-04-22T11:25:53;24.60;13.30
3198;DHT22;1611;49.394;11.136;2023-04-22T11:28:20;24.90;14.00
3198;DHT22;1611;49.394;11.136;2023-04-22T11:30:49;25.20;13.50
3198;DHT22;1611;49.394;11.136;2023-04-22T11:33:17;25.40;12.60
3198;DHT22;1611;49.394;11.136;2023-04-22T11:35:44;25.60;12.90
3198;DHT22;1611;49.394;11.136;2023-04-22T11:38:11;25.70;12.60
3198;DHT22;1611;49.394;11.136;2023-04-22T11:40:39;25.60;12.60
3198;DHT22;1611;49.394;11.136;2023-04-22T11:43:08;25.60;12.50
3198;DHT22;1611;49.394;11.136;2023-04-22T11:45:37;25.80;12.90
3198;DHT22;1611;49.394;11.136;2023-04-22T11:48:06;25.60;11.60
3198;DHT22;1611;49.394;11.136;2023-04-22T11:50:35;25.60;12.20
3198;DHT22;1611;49.394;11.136;2023-04-22T11:53:04;25.60;12.70
3198;DHT22;1611;49.394;11.136;2023-04-22T11:55:32;25.70;12.60
3198;DHT22;1611;49.394;11.136;2023-04-22T11:58:01;25.80;11.10
3198;DHT22;1611;49.394;11.136;2023-04-22T12:00:33;26.20;10.10
3198;DHT22;1611;49.394;11.136;2023-04-22T12:03:03;26.40;9.80
3198;DHT22;1611;49.394;11.136;2023-04-22T12:05:36;26.60;11.20
3198;DHT22;1611;49.394;11.136;2023-04-22T12:08:07;27.00;10.40
3198;DHT22;1611;49.394;11.136;2023-04-22T12:10:39;27.20;9.80
3198;DHT22;1611;49.394;11.136;2023-04-22T12:13:06;27.70;9.50
3198;DHT22;1611;49.394;11.136;2023-04-22T12:15:38;28.20;10.00
3198;DHT22;1611;49.394;11.136;2023-04-22T12:18:05;28.80;7.50
3198;DHT22;1611;49.394;11.136;2023-04-22T12:20:34;29.40;7.50
3198;DHT22;1611;49.394;11.136;2023-04-22T12:23:02;30.10;6.10
3198;DHT22;1611;49.394;11.136;2023-04-22T12:25:28;30.00;6.60
3198;DHT22;1611;49.394;11.136;2023-04-22T12:27:58;29.80;6.50
3198;DHT22;1611;49.394;11.136;2023-04-22T12:30:25;29.60;7.70
3198;DHT22;1611;49.394;11.136;2023-04-22T12:32:51;29.30;7.60
3198;DHT22;1611;49.394;11.136;2023-04-22T12:35:18;29.10;6.60
3198;DHT22;1611;49.394;11.136;2023-04-22T12:37:46;28.80;6.70
3198;DHT22;1611;49.394;11.136;2023-04-22T12:40:13;28.70;7.40
3198;DHT22;1611;49.394;11.136;2023-04-22T12:42:40;28.30;8.20
3198;DHT22;1611;49.394;11.136;2023-04-22T12:45:08;28.40;7.70
3198;DHT22;1611;49.394;11.136;2023-04-22T12:47:34;29.10;7.20
3198;DHT22;1611;49.394;11.136;2023-04-22T12:50:01;30.50;5.90
3198;DHT22;1611;49.394;11.136;2023-04-22T12:52:31;31.60;4.70
3198;DHT22;1611;49.394;11.136;2023-04-22T12:55:00;32.60;4.70
3198;DHT22;1611;49.394;11.136;2023-04-22T12:57:27;33.80;3.30
3198;DHT22;1611;49.394;11.136;2023-04-22T12:59:54;34.10;2.80
3198;DHT22;1611;49.394;11.136;2023-04-22T13:02:21;33.90;3.50
3198;DHT22;1611;49.394;11.136;2023-04-22T13:04:48;33.20;3.90
3198;DHT22;1611;49.394;11.136;2023-04-22T13:07:15;32.90;4.20
3198;DHT22;1611;49.394;11.136;2023-04-22T13:09:42;32.70;4.70
3198;DHT22;1611;49.394;11.136;2023-04-22T13:12:11;32.30;4.90
3198;DHT22;1611;49.394;11.136;2023-04-22T13:14:38;31.90;5.20
3198;DHT22;1611;49.394;11.136;2023-04-22T13:17:05;31.30;6.30
3198;DHT22;1611;49.394;11.136;2023-04-22T13:19:32;30.90;6.30
3198;DHT22;1611;49.394;11.136;2023-04-22T13:22:00;31.10;6.60
3198;DHT22;1611;49.394;11.136;2023-04-22T13:24:27;31.50;6.70
3198;DHT22;1611;49.394;11.136;2023-04-22T13:26:53;32.20;5.10
3198;DHT22;1611;49.394;11.136;2023-04-22T13:29:22;32.80;4.30
3198;DHT22;1611;49.394;11.136;2023-04-22T13:31:49;32.90;4.10
3198;DHT22;1611;49.394;11.136;2023-04-22T13:34:15;32.50;4.60
3198;DHT22;1611;49.394;11.136;2023-04-22T13:36:42;32.00;5.00
3198;DHT22;1611;49.394;11.136;2023-04-22T13:39:09;31.70;5.40
3198;DHT22;1611;49.394;11.136;2023-04-22T13:41:36;32.10;5.40
3198;DHT22;1611;49.394;11.136;2023-04-22T13:44:03;32.20;4.50
3198;DHT22;1611;49.394;11.136;2023-04-22T13:46:31;32.00;4.70
3198;DHT22;1611;49.394;11.136;2023-04-22T13:48:58;31.90;5.10
3198;DHT22;1611;49.394;11.136;2023-04-22T13:51:24;31.80;5.00
3198;DHT22;1611;49.394;11.136;2023-04-22T13:53:51;31.90;4.30
3198;DHT22;1611;49.394;11.136;2023-04-22T13:56:18;31.40;4.90
3198;DHT22;1611;49.394;11.136;2023-04-22T13:58:45;31.10;5.50
3198;DHT22;1611;49.394;11.136;2023-04-22T14:01:12;31.60;4.90
3198;DHT22;1611;49.394;11.136;2023-04-22T14:03:40;32.10;4.70
3198;DHT22;1611;49.394;11.136;2023-04-22T14:06:07;32.00;4.50
3198;DHT22;1611;49.394;11.136;2023-04-22T14:08:33;31.70;4.70
3198;DHT22;1611;49.394;11.136;2023-04-22T14:11:00;31.60;4.50
3198;DHT22;1611;49.394;11.136;2023-04-22T14:13:28;31.70;4.30
3198;DHT22;1611;49.394;11.136;2023-04-22T14:15:55;31.40;4.90
3198;DHT22;1611;49.394;11.136;2023-04-22T14:18:22;31.00;4.40
3198;DHT22;1611;49.394;11.136;2023-04-22T14:20:51;31.40;4.40
3198;DHT22;1611;49.394;11.136;2023-04-22T14:23:18;31.70;3.50
3198;DHT22;1611;49.394;11.136;2023-04-22T14:25:46;31.90;2.70
3198;DHT22;1611;49.394;11.136;2023-04-22T14:28:13;31.80;2.90
3198;DHT22;1611;49.394;11.136;2023-04-22T14:30:41;31.80;3.60
3198;DHT22;1611;49.394;11.136;2023-04-22T14:33:08;31.80;2.50
3198;DHT22;1611;49.394;11.136;2023-04-22T14:35:35;31.60;3.00
3198;DHT22;1611;49.394;11.136;2023-04-22T14:38:06;31.90;2.40
3198;DHT22;1611;49.394;11.136;2023-04-22T14:40:33;31.50;3.30
3198;DHT22;1611;49.394;11.136;2023-04-22T14:43:02;31.10;3.80
3198;DHT22;1611;49.394;11.136;2023-04-22T14:45:30;30.30;4.40
3198;DHT22;1611;49.394;11.136;2023-04-22T14:47:57;30.00;3.80
3198;DHT22;1611;49.394;11.136;2023-04-22T14:50:24;29.90;3.80
3198;DHT22;1611;49.394;11.136;2023-04-22T14:52:51;30.90;3.70
3198;DHT22;1611;49.394;11.136;2023-04-22T14:55:20;32.30;2.80
3198;DHT22;1611;49.394;11.136;2023-04-22T14:57:48;33.10;1.70
3198;DHT22;1611;49.394;11.136;2023-04-22T15:00:15;33.90;1.00
3198;DHT22;1611;49.394;11.136;2023-04-22T15:02:41;34.60;1.00
3198;DHT22;1611;49.394;11.136;2023-04-22T15:05:09;34.40;1.00
3198;DHT22;1611;49.394;11.136;2023-04-22T15:07:36;33.50;1.80
3198;DHT22;1611;49.394;11.136;2023-04-22T15:10:03;32.20;3.00
3198;DHT22;1611;49.394;11.136;2023-04-22T15:12:31;31.00;4.60
3198;DHT22;1611;49.394;11.136;2023-04-22T15:14:58;30.30;5.50
3198;DHT22;1611;49.394;11.136;2023-04-22T15:17:25;29.40;6.00
3198;DHT22;1611;49.394;11.136;2023-04-22T15:19:51;28.70;6.20
3198;DHT22;1611;49.394;11.136;2023-04-22T15:22:22;28.20;7.20
3198;DHT22;1611;49.394;11.136;2023-04-22T15:24:49;28.00;7.70
3198;DHT22;1611;49.394;11.136;2023-04-22T15:27:16;27.90;7.50
3198;DHT22;1611;49.394;11.136;2023-04-22T15:29:44;27.60;7.80
3198;DHT22;1611;49.394;11.136;2023-04-22T15:32:11;27.20;8.60
3198;DHT22;1611;49.394;11.136;2023-04-22T15:34:38;26.50;8.90
3198;DHT22;1611;49.394;11.136;2023-04-22T15:37:05;26.10;9.90
3198;DHT22;1611;49.394;11.136;2023-04-22T15:39:32;25.90;9.70
3198;DHT22;1611;49.394;11.136;2023-04-22T15:41:59;25.80;10.40
3198;DHT22;1611;49.394;11.136;2023-04-22T15:44:26;25.70;10.60
3198;DHT22;1611;49.394;11.136;2023-04-22T15:46:54;25.60;11.00
3198;DHT22;1611;49.394;11.136;2023-04-22T15:49:23;25.60;10.60
3198;DHT22;1611;49.394;11.136;2023-04-22T15:51:50;25.40;10.90
3198;DHT22;1611;49.394;11.136;2023-04-22T15:54:17;25.20;10.80
3198;DHT22;1611;49.394;11.136;2023-04-22T15:56:44;25.00;11.30